Time;durP1;ratioP1;P1;durP2;ratioP2;P2;SDS_P1;SDS_P2;PMS_P1;PMS_P2;Temp;Humidity;BMP_temperature;BMP_pressure;BME280_temperature;BME280_humidity;BME280_pressure;Samples;Min_cycle;Max_cycle;Signal;HPM_P1;HPM_P2
2023/04/06 00:00:58;;;;;;;14.73;8.53;;;7.70;99.90;;;;;;5096970;28;20282;-61
2023/04/06 00:03:25;;;;;;;9.93;7.97;;;7.70;99.90;;;;;;5096491;28;20235;-61
2023/04/06 00:05:53;;;;;;;13.87;8.70;;;7.60;99.90;;;;;;5098541;28;20197;-60
2023/04/06 00:08:21;;;;;;;10.13;7.53;;;7.60;99.90;;;;;;5098352;28;20696;-62
2023/04/06 00:10:48;;;;;;;10.50;7.50;;;7.50;99.90;;;;;;5097562;28;20234;-61
2023/04/06 00:13:15;;;;;;;11.93;7.87;;;7.50;99.90;;;;;;5097154;28;20261;-61
2023/04/06 00:15:42;;;;;;;12.87;7.87;;;7.50;99.90;;;;;;5094254;28;21135;-61
2023/04/06 00:18:09;;;;;;;15.73;8.37;;;7.50;99.90;;;;;;5096218;28;20225;-61
2023/04/06 00:20:36;;;;;;;12.83;8.90;;;7.40;99.90;;;;;;5095874;28;20205;-63
2023/04/06 00:23:03;;;;;;;13.40;8.30;;;7.50;99.90;;;;;;5098135;28;20701;-62
2023/04/06 00:25:30;;;;;;;15.30;7.77;;;7.30;99.90;;;;;;5096381;28;20674;-61
2023/04/06 00:27:57;;;;;;;13.10;8.33;;;7.20;99.90;;;;;;5101060;28;20221;-60
2023/04/06 00:30:24;;;;;;;10.10;7.97;;;7.30;99.90;;;;;;5099375;28;20202;-61
2023/04/06 00:32:51;;;;;;;12.03;7.80;;;7.20;99.90;;;;;;5099520;28;20665;-62
2023/04/06 00:35:18;;;;;;;10.77;8.60;;;7.20;99.90;;;;;;5099859;28;20205;-63
2023/04/06 00:37:48;;;;;;;11.83;7.87;;;7.20;99.90;;;;;;5097884;28;20271;-61
2023/04/06 00:40:15;;;;;;;13.23;8.27;;;7.20;99.90;;;;;;5098521;28;20203;-61
2023/04/06 00:42:42;;;;;;;11.93;7.90;;;7.20;99.90;;;;;;5098963;28;20204;-61
2023/04/06 00:45:10;;;;;;;11.83;7.80;;;7.10;99.90;;;;;;5099688;28;20202;-61
2023/04/06 00:47:37;;;;;;;13.50;8.73;;;7.00;99.90;;;;;;5099362;28;20643;-61
2023/04/06 00:50:04;;;;;;;17.90;8.47;;;7.00;99.90;;;;;;5098694;28;20669;-61
2023/04/06 00:52:31;;;;;;;11.07;7.83;;;7.00;99.90;;;;;;5097915;28;20210;-61
2023/04/06 00:54:58;;;;;;;12.40;8.47;;;6.90;99.90;;;;;;5095674;28;20653;-61
2023/04/06 00:57:25;;;;;;;12.07;8.63;;;6.90;99.90;;;;;;5094017;28;20287;-61
2023/04/06 00:59:52;;;;;;;11.97;7.97;;;6.90;99.90;;;;;;5098098;28;20278;-63
2023/04/06 01:02:20;;;;;;;12.23;7.93;;;7.00;99.90;;;;;;5096172;28;20232;-60
2023/04/06 01:04:47;;;;;;;12.33;8.30;;;7.00;99.90;;;;;;5097485;28;20201;-60
2023/04/06 01:07:14;;;;;;;12.83;8.07;;;7.00;99.90;;;;;;5095809;28;20236;-60
2023/04/06 01:09:41;;;;;;;11.53;7.57;;;7.00;99.90;;;;;;5098293;28;20203;-61
2023/04/06 01:12:09;;;;;;;15.57;8.47;;;7.00;99.90;;;;;;5097619;28;20206;-61
2023/04/06 01:14:36;;;;;;;13.57;7.77;;;6.90;99.90;;;;;;5079655;28;20243;-60
2023/04/06 01:17:03;;;;;;;12.10;7.83;;;6.90;99.90;;;;;;5097160;28;20204;-60
2023/04/06 01:19:31;;;;;;;13.53;8.47;;;6.80;99.90;;;;;;5098865;28;20776;-61
2023/04/06 01:21:58;;;;;;;13.03;8.10;;;6.90;99.90;;;;;;5098735;28;20212;-67
2023/04/06 01:24:25;;;;;;;13.33;7.77;;;6.90;99.90;;;;;;5080257;28;20285;-60
2023/04/06 01:26:52;;;;;;;10.17;7.27;;;6.80;99.90;;;;;;5079777;28;20723;-60
2023/04/06 01:29:19;;;;;;;12.87;8.00;;;6.80;99.90;;;;;;5097595;28;20251;-60
2023/04/06 01:31:46;;;;;;;15.10;8.03;;;6.80;99.90;;;;;;5081184;28;20201;-61
2023/04/06 01:34:13;;;;;;;10.80;7.27;;;6.90;99.90;;;;;;5098539;28;20206;-60
2023/04/06 01:36:40;;;;;;;12.30;8.37;;;6.90;99.90;;;;;;5095322;28;20200;-60
2023/04/06 01:39:07;;;;;;;13.07;8.43;;;6.80;99.90;;;;;;5096574;28;20655;-60
2023/04/06 01:41:35;;;;;;;12.43;7.83;;;6.80;99.90;;;;;;5097453;28;20208;-60
2023/04/06 01:44:02;;;;;;;12.30;7.77;;;6.90;99.90;;;;;;5097586;28;20305;-60
2023/04/06 01:46:30;;;;;;;11.60;8.10;;;6.80;99.90;;;;;;5081092;28;20232;-60
2023/04/06 01:48:57;;;;;;;10.57;7.17;;;6.90;99.90;;;;;;5101747;28;20628;-61
2023/04/06 01:51:25;;;;;;;12.57;7.90;;;6.90;99.90;;;;;;5099842;28;20239;-60
2023/04/06 01:53:52;;;;;;;12.07;8.23;;;6.90;99.90;;;;;;5080853;28;20577;-60
2023/04/06 01:56:20;;;;;;;11.43;7.80;;;6.80;99.90;;;;;;5101902;28;20198;-61
2023/04/06 01:58:47;;;;;;;14.40;8.80;;;6.90;99.90;;;;;;5102113;28;20202;-60
2023/04/06 02:01:14;;;;;;;16.17;9.77;;;6.90;99.90;;;;;;5084508;28;20271;-61
2023/04/06 02:03:41;;;;;;;12.73;8.40;;;6.90;99.90;;;;;;5101567;28;20223;-60
2023/04/06 02:06:08;;;;;;;13.27;8.47;;;6.90;99.90;;;;;;5097012;28;20211;-61
2023/04/06 02:08:35;;;;;;;13.13;7.73;;;6.80;99.90;;;;;;5100840;28;20558;-60
2023/04/06 02:11:02;;;;;;;13.13;8.30;;;6.70;99.90;;;;;;5081686;28;20422;-61
2023/04/06 02:13:29;;;;;;;14.20;8.17;;;6.80;99.90;;;;;;5101392;28;20197;-60
2023/04/06 02:15:56;;;;;;;12.70;8.30;;;6.80;99.90;;;;;;5100251;28;20233;-61
2023/04/06 02:18:23;;;;;;;18.27;9.00;;;6.90;99.90;;;;;;5101647;28;20701;-60
2023/04/06 02:20:50;;;;;;;13.57;8.47;;;6.90;99.90;;;;;;5086493;28;20292;-60
2023/04/06 02:23:17;;;;;;;14.47;9.40;;;6.90;99.90;;;;;;5097302;28;20614;-61
2023/04/06 02:25:44;;;;;;;13.60;8.73;;;7.00;99.90;;;;;;5081320;28;20647;-60
2023/04/06 02:28:11;;;;;;;13.70;9.70;;;6.90;99.90;;;;;;5098950;28;20214;-60
2023/04/06 02:30:38;;;;;;;14.13;8.87;;;6.90;99.90;;;;;;5097571;28;20292;-60
2023/04/06 02:33:05;;;;;;;12.10;8.77;;;6.90;99.90;;;;;;5099749;28;20653;-60
2023/04/06 02:35:32;;;;;;;14.77;9.77;;;7.00;99.90;;;;;;5095012;28;20689;-60
2023/04/06 02:37:59;;;;;;;14.73;9.23;;;6.90;99.90;;;;;;5083910;28;20227;-60
2023/04/06 02:40:26;;;;;;;15.23;9.60;;;7.00;99.90;;;;;;5080488;28;20204;-61
2023/04/06 02:42:53;;;;;;;14.07;9.50;;;7.00;99.90;;;;;;5099103;28;20224;-61
2023/04/06 02:45:20;;;;;;;12.33;8.93;;;6.90;99.90;;;;;;5096382;28;20301;-60
2023/04/06 02:47:47;;;;;;;16.80;9.40;;;6.90;99.90;;;;;;5100232;28;20664;-60
2023/04/06 02:50:14;;;;;;;14.23;8.93;;;6.90;99.90;;;;;;5096440;28;20280;-60
2023/04/06 02:52:41;;;;;;;13.73;9.50;;;6.90;99.90;;;;;;5091026;28;20719;-60
2023/04/06 02:55:08;;;;;;;14.57;10.00;;;6.90;99.90;;;;;;5096600;28;20216;-60
2023/04/06 02:57:35;;;;;;;13.23;8.70;;;7.00;99.90;;;;;;5078719;28;20221;-60
2023/04/06 03:00:03;;;;;;;12.20;8.90;;;6.90;99.90;;;;;;5097635;28;20281;-60
2023/04/06 03:02:29;;;;;;;14.77;8.80;;;6.90;99.90;;;;;;5094578;28;20248;-61
2023/04/06 03:04:56;;;;;;;13.97;9.03;;;6.80;99.90;;;;;;5095116;28;20648;-62
2023/04/06 03:07:23;;;;;;;13.80;9.50;;;6.70;99.90;;;;;;5098106;28;20234;-60
2023/04/06 03:09:50;;;;;;;16.77;9.27;;;6.70;99.90;;;;;;5098470;28;20250;-60
2023/04/06 03:12:17;;;;;;;11.83;8.70;;;6.80;99.90;;;;;;5098391;28;20650;-60
2023/04/06 03:14:44;;;;;;;13.60;8.67;;;6.90;99.90;;;;;;5079979;28;20244;-60
2023/04/06 03:17:12;;;;;;;15.07;9.60;;;6.90;99.90;;;;;;5097862;28;20652;-60
2023/04/06 03:19:39;;;;;;;14.87;10.20;;;6.90;99.90;;;;;;5079871;28;20870;-60
2023/04/06 03:22:05;;;;;;;14.07;9.27;;;6.80;99.90;;;;;;5098348;28;20691;-60
2023/04/06 03:24:32;;;;;;;16.43;9.90;;;6.80;99.90;;;;;;5095668;28;20193;-60
2023/04/06 03:27:00;;;;;;;15.37;10.03;;;6.80;99.90;;;;;;5096004;28;20257;-60
2023/04/06 03:29:27;;;;;;;13.43;9.17;;;6.70;99.90;;;;;;5093123;28;20206;-60
2023/04/06 03:31:54;;;;;;;15.97;9.53;;;6.60;99.90;;;;;;5096633;28;20214;-62
2023/04/06 03:34:21;;;;;;;15.30;9.40;;;6.60;99.90;;;;;;5096210;28;20205;-60
2023/04/06 03:36:47;;;;;;;14.10;10.07;;;6.70;99.90;;;;;;5096918;28;20630;-60
2023/04/06 03:39:28;;;;;;;15.37;9.90;;;6.60;99.90;;;;;;5093527;28;20546;-60
2023/04/06 03:41:55;;;;;;;17.37;10.07;;;6.50;99.90;;;;;;5077580;28;20564;-60
2023/04/06 03:44:22;;;;;;;18.90;9.83;;;6.70;99.90;;;;;;5094820;28;20551;-60
2023/04/06 03:46:49;;;;;;;14.57;9.57;;;6.80;99.90;;;;;;5094909;28;20226;-60
2023/04/06 03:49:16;;;;;;;15.23;10.23;;;6.70;99.90;;;;;;5097515;28;20208;-60
2023/04/06 03:51:43;;;;;;;14.93;10.17;;;6.90;99.90;;;;;;5078606;28;21246;-61
2023/04/06 03:54:10;;;;;;;17.17;9.27;;;6.90;99.90;;;;;;5097378;28;20214;-66
2023/04/06 03:56:36;;;;;;;13.10;9.00;;;6.90;99.90;;;;;;5096137;28;20219;-61
2023/04/06 03:59:04;;;;;;;15.20;9.67;;;6.90;99.90;;;;;;5097185;28;20290;-61
2023/04/06 04:01:31;;;;;;;16.43;10.70;;;6.80;99.90;;;;;;5085383;28;20193;-62
2023/04/06 04:03:58;;;;;;;26.63;10.27;;;6.80;99.90;;;;;;5097246;28;20661;-61
2023/04/06 04:06:25;;;;;;;16.47;10.60;;;6.80;99.90;;;;;;5096983;28;20225;-61
2023/04/06 04:08:52;;;;;;;19.73;10.87;;;6.80;99.90;;;;;;5096125;28;20273;-61
2023/04/06 04:11:18;;;;;;;17.30;11.13;;;6.80;99.90;;;;;;5086084;28;20345;-68
2023/04/06 04:13:45;;;;;;;17.30;10.27;;;6.80;99.90;;;;;;5096904;28;20259;-61
2023/04/06 04:16:12;;;;;;;18.27;10.27;;;6.80;99.90;;;;;;5099448;28;20679;-61
2023/04/06 04:18:39;;;;;;;14.83;9.67;;;6.80;99.90;;;;;;5098373;28;20247;-60
2023/04/06 04:21:06;;;;;;;14.97;9.77;;;6.80;99.90;;;;;;5098505;28;20317;-61
2023/04/06 04:23:33;;;;;;;15.47;10.30;;;6.80;99.90;;;;;;5098720;28;20281;-61
2023/04/06 04:26:03;;;;;;;18.77;10.57;;;6.90;99.90;;;;;;5098978;28;20261;-61
2023/04/06 04:28:30;;;;;;;18.00;10.10;;;6.80;99.90;;;;;;5099730;28;20274;-61
2023/04/06 04:30:57;;;;;;;19.60;10.73;;;6.80;99.90;;;;;;5096706;28;20197;-61
2023/04/06 04:33:23;;;;;;;15.63;10.43;;;6.80;99.90;;;;;;5099393;27;20204;-61
2023/04/06 04:35:50;;;;;;;17.93;10.77;;;6.70;99.90;;;;;;5095621;28;20198;-61
2023/04/06 04:38:18;;;;;;;16.33;10.63;;;6.80;99.90;;;;;;5096338;27;20284;-61
2023/04/06 04:40:45;;;;;;;18.73;10.37;;;6.80;99.90;;;;;;5097581;28;20204;-61
2023/04/06 04:43:11;;;;;;;17.07;11.13;;;6.80;99.90;;;;;;5100066;28;20601;-61
2023/04/06 04:45:38;;;;;;;15.13;10.57;;;6.70;99.90;;;;;;5099170;28;20242;-61
2023/04/06 04:48:07;;;;;;;16.73;11.23;;;6.80;99.90;;;;;;5098060;28;20642;-60
2023/04/06 04:50:34;;;;;;;15.83;11.10;;;6.80;99.90;;;;;;5098539;28;20194;-61
2023/04/06 04:53:01;;;;;;;15.50;11.10;;;6.80;99.90;;;;;;5097214;28;20240;-61
2023/04/06 04:55:29;;;;;;;18.13;11.27;;;6.80;99.90;;;;;;5095174;28;20249;-61
2023/04/06 04:57:56;;;;;;;22.30;11.77;;;6.80;99.90;;;;;;5078982;28;20237;-61
2023/04/06 05:00:23;;;;;;;18.27;11.37;;;6.80;99.90;;;;;;5096935;28;20651;-61
2023/04/06 05:02:50;;;;;;;18.37;11.33;;;6.80;99.90;;;;;;5094869;28;20200;-61
2023/04/06 05:05:16;;;;;;;18.47;12.33;;;6.70;99.90;;;;;;5095315;28;20356;-61
2023/04/06 05:07:43;;;;;;;19.60;12.17;;;6.80;99.90;;;;;;5079626;28;20284;-61
2023/04/06 05:10:10;;;;;;;19.13;11.83;;;6.80;99.90;;;;;;5077030;28;20235;-62
2023/04/06 05:12:38;;;;;;;18.53;11.10;;;6.80;99.90;;;;;;5077009;28;20197;-60
2023/04/06 05:15:05;;;;;;;17.87;10.93;;;6.80;99.90;;;;;;5077723;28;20209;-61
2023/04/06 05:17:33;;;;;;;16.97;11.30;;;6.80;99.90;;;;;;5096167;28;20205;-61
2023/04/06 05:20:00;;;;;;;17.80;11.00;;;6.80;99.90;;;;;;5096916;28;20211;-60
2023/04/06 05:22:27;;;;;;;16.23;11.00;;;6.80;99.90;;;;;;5098997;28;20334;-61
2023/04/06 05:24:54;;;;;;;20.30;12.03;;;6.80;99.90;;;;;;5079059;28;20257;-61
2023/04/06 05:27:21;;;;;;;17.87;11.23;;;6.90;99.90;;;;;;5100266;28;20878;-61
2023/04/06 05:29:48;;;;;;;18.77;11.57;;;6.90;99.90;;;;;;5090545;28;20444;-61
2023/04/06 05:32:14;;;;;;;16.00;11.93;;;6.90;99.90;;;;;;5080201;28;20217;-61
2023/04/06 05:34:41;;;;;;;17.20;11.33;;;6.90;99.90;;;;;;5097138;28;20205;-60
2023/04/06 05:37:08;;;;;;;16.97;11.20;;;6.80;99.90;;;;;;5097942;28;20197;-61
2023/04/06 05:39:35;;;;;;;19.00;11.33;;;6.90;99.90;;;;;;5080413;28;20679;-63
2023/04/06 05:42:06;;;;;;;17.67;11.13;;;6.90;99.90;;;;;;5099139;28;20546;-61
2023/04/06 05:44:33;;;;;;;19.43;12.27;;;6.90;99.90;;;;;;5096144;28;20224;-61
2023/04/06 05:47:00;;;;;;;18.07;11.57;;;6.90;99.90;;;;;;5099067;28;20216;-61
2023/04/06 05:49:27;;;;;;;16.90;11.30;;;6.80;99.90;;;;;;5097953;28;20213;-61
2023/04/06 05:51:55;;;;;;;22.60;11.53;;;6.80;99.90;;;;;;5098647;28;20269;-61
2023/04/06 05:54:22;;;;;;;19.03;11.03;;;6.90;99.90;;;;;;5095943;28;20646;-61
2023/04/06 05:56:49;;;;;;;21.37;11.67;;;6.90;99.90;;;;;;5098577;28;20248;-61
2023/04/06 05:59:16;;;;;;;14.00;9.70;;;7.00;99.90;;;;;;5097654;28;20205;-61
2023/04/06 06:01:43;;;;;;;17.80;11.23;;;6.80;99.90;;;;;;5091124;28;20210;-61
2023/04/06 06:04:10;;;;;;;14.63;10.23;;;6.90;99.90;;;;;;5076739;28;20226;-61
2023/04/06 06:06:36;;;;;;;19.47;10.70;;;6.80;99.90;;;;;;5099465;28;20499;-61
2023/04/06 06:09:03;;;;;;;22.33;12.30;;;6.80;99.90;;;;;;5081722;28;20242;-61
2023/04/06 06:11:30;;;;;;;15.37;10.03;;;6.90;99.90;;;;;;5098116;28;20221;-61
2023/04/06 06:13:57;;;;;;;18.23;11.30;;;7.00;99.90;;;;;;5099724;28;20248;-61
2023/04/06 06:16:24;;;;;;;16.93;11.00;;;7.10;99.90;;;;;;5100585;28;20275;-61
2023/04/06 06:18:51;;;;;;;18.30;9.87;;;7.00;99.90;;;;;;5081432;28;20307;-61
2023/04/06 06:21:18;;;;;;;17.73;10.77;;;7.10;99.90;;;;;;5079860;28;20229;-61
2023/04/06 06:23:47;;;;;;;18.40;11.37;;;6.80;99.90;;;;;;5095767;28;20234;-61
2023/04/06 06:26:14;;;;;;;17.67;12.10;;;6.90;99.90;;;;;;5080200;28;20668;-61
2023/04/06 06:28:40;;;;;;;17.83;11.03;;;7.10;99.90;;;;;;4741194;28;9999666;-61
2023/04/06 06:31:07;;;;;;;17.47;11.53;;;7.20;99.90;;;;;;5085996;28;20452;-61
2023/04/06 06:33:34;;;;;;;18.97;10.40;;;7.30;99.90;;;;;;5090938;28;20243;-61
2023/04/06 06:36:01;;;;;;;17.63;11.03;;;7.40;99.90;;;;;;5085761;28;20291;-63
2023/04/06 06:38:28;;;;;;;18.07;10.17;;;7.30;99.90;;;;;;5096442;28;20207;-60
2023/04/06 06:40:55;;;;;;;18.63;10.87;;;7.30;99.90;;;;;;5095067;28;20195;-61
2023/04/06 06:43:22;;;;;;;16.90;10.40;;;7.40;99.90;;;;;;5095721;28;20289;-61
2023/04/06 06:45:49;;;;;;;19.73;12.13;;;7.40;99.90;;;;;;5090138;28;20733;-61
2023/04/06 06:48:16;;;;;;;16.10;11.37;;;7.50;99.90;;;;;;5094270;28;20200;-61
2023/04/06 06:50:43;;;;;;;19.20;11.40;;;7.60;99.90;;;;;;5093129;28;20295;-61
2023/04/06 06:53:10;;;;;;;15.50;10.50;;;7.60;99.90;;;;;;5095992;28;20562;-60
2023/04/06 06:55:37;;;;;;;20.63;10.97;;;7.60;99.90;;;;;;5092761;28;21221;-61
2023/04/06 06:58:05;;;;;;;18.53;11.83;;;7.50;99.90;;;;;;5081198;28;20202;-62
2023/04/06 07:00:32;;;;;;;15.73;11.10;;;7.40;99.90;;;;;;5071986;28;20623;-61
2023/04/06 07:02:59;;;;;;;16.97;11.40;;;7.40;99.90;;;;;;5090581;28;20199;-61
2023/04/06 07:05:27;;;;;;;16.87;11.17;;;7.10;99.90;;;;;;5094616;27;20209;-61
2023/04/06 07:07:55;;;;;;;16.20;11.17;;;7.30;99.90;;;;;;5087092;27;20209;-61
2023/04/06 07:10:22;;;;;;;17.77;11.43;;;7.20;99.90;;;;;;5091823;27;21013;-61
2023/04/06 07:12:49;;;;;;;13.83;10.13;;;7.40;99.90;;;;;;5070946;28;20260;-61
2023/04/06 07:15:17;;;;;;;17.27;11.20;;;7.60;99.90;;;;;;5079672;28;20297;-61
2023/04/06 07:17:47;;;;;;;20.17;10.83;;;7.40;99.90;;;;;;5079102;28;20737;-61
2023/04/06 07:20:14;;;;;;;17.83;10.77;;;7.20;99.90;;;;;;5078985;27;20205;-61
2023/04/06 07:22:44;;;;;;;16.13;10.13;;;7.00;99.90;;;;;;5060289;28;20230;-61
2023/04/06 07:25:11;;;;;;;18.53;11.40;;;7.30;99.90;;;;;;5065720;28;20210;-61
2023/04/06 07:27:38;;;;;;;17.43;10.53;;;7.30;99.90;;;;;;5078606;28;20213;-61
2023/04/06 07:30:05;;;;;;;18.37;11.27;;;7.40;99.90;;;;;;5091147;28;20213;-61
2023/04/06 07:32:34;;;;;;;20.17;11.07;;;7.40;99.90;;;;;;5077634;28;20199;-61
2023/04/06 07:35:01;;;;;;;17.27;10.60;;;7.60;99.90;;;;;;5087167;28;20216;-61
2023/04/06 07:37:28;;;;;;;15.77;11.40;;;7.60;99.90;;;;;;5075547;28;20235;-61
2023/04/06 07:39:55;;;;;;;19.53;10.67;;;7.50;99.90;;;;;;5066997;28;20275;-61
2023/04/06 07:42:22;;;;;;;17.07;11.63;;;7.50;99.90;;;;;;5063620;28;20623;-61
2023/04/06 07:44:49;;;;;;;20.43;11.60;;;7.60;99.90;;;;;;5090580;28;20283;-61
2023/04/06 07:47:16;;;;;;;20.83;11.07;;;7.40;99.90;;;;;;5096194;27;20281;-67
2023/04/06 07:49:43;;;;;;;15.40;10.67;;;7.40;99.90;;;;;;5077436;28;20222;-61
2023/04/06 07:52:09;;;;;;;21.73;11.00;;;7.50;99.90;;;;;;5096559;27;20201;-61
2023/04/06 07:54:36;;;;;;;17.90;10.90;;;7.70;99.90;;;;;;5077166;28;20255;-61
2023/04/06 07:57:03;;;;;;;17.37;10.83;;;7.50;99.90;;;;;;5092023;28;20291;-61
2023/04/06 07:59:30;;;;;;;19.67;11.40;;;7.70;99.90;;;;;;5091133;28;20232;-61
2023/04/06 08:01:57;;;;;;;18.23;11.80;;;7.70;99.90;;;;;;5087817;28;20297;-61
2023/04/06 08:04:24;;;;;;;17.00;11.20;;;7.50;99.90;;;;;;5076862;28;20670;-61
2023/04/06 08:06:51;;;;;;;17.97;11.50;;;7.40;99.90;;;;;;5095275;28;20579;-62
2023/04/06 08:09:18;;;;;;;17.03;11.50;;;7.70;99.90;;;;;;5076642;28;20254;-61
2023/04/06 08:11:46;;;;;;;18.13;10.70;;;7.80;99.90;;;;;;5075314;28;20659;-61
2023/04/06 08:14:12;;;;;;;16.43;11.43;;;7.40;99.90;;;;;;5094367;28;20194;-61
2023/04/06 08:16:39;;;;;;;17.87;11.20;;;7.30;99.90;;;;;;5096390;27;20713;-61
2023/04/06 08:19:09;;;;;;;19.30;11.37;;;7.50;99.90;;;;;;5077463;28;20706;-61
2023/04/06 08:21:36;;;;;;;16.27;10.33;;;7.50;99.90;;;;;;5095378;28;20702;-61
2023/04/06 08:24:03;;;;;;;18.23;11.47;;;7.50;99.90;;;;;;5074640;28;20879;-61
2023/04/06 08:26:30;;;;;;;19.17;11.67;;;7.60;99.90;;;;;;5096970;28;20262;-62
2023/04/06 08:28:57;;;;;;;19.13;11.73;;;7.70;99.90;;;;;;5094528;28;20900;-61
2023/04/06 08:31:24;;;;;;;20.87;11.47;;;8.00;99.90;;;;;;5092255;28;20204;-61
2023/04/06 08:33:51;;;;;;;18.57;12.13;;;8.20;99.90;;;;;;5098366;28;20208;-61
2023/04/06 08:36:22;;;;;;;16.37;11.20;;;8.30;99.90;;;;;;5094972;28;20195;-62
2023/04/06 08:38:50;;;;;;;18.37;11.30;;;8.20;99.90;;;;;;5097421;28;20386;-61
2023/04/06 08:41:17;;;;;;;20.70;12.50;;;8.00;99.90;;;;;;5093799;28;20640;-61
2023/04/06 08:43:49;;;;;;;18.80;10.90;;;8.00;99.90;;;;;;5076789;28;20228;-61
2023/04/06 08:46:18;;;;;;;17.33;11.03;;;8.10;99.90;;;;;;5096340;28;20199;-61
2023/04/06 08:48:45;;;;;;;19.37;11.33;;;8.00;99.90;;;;;;5078865;28;20544;-64
2023/04/06 08:51:13;;;;;;;17.87;11.67;;;8.00;99.90;;;;;;5097749;28;20199;-61
2023/04/06 08:53:40;;;;;;;19.53;12.57;;;7.90;99.90;;;;;;5096729;28;20199;-61
2023/04/06 08:56:09;;;;;;;17.67;11.50;;;8.00;99.90;;;;;;5090075;28;20622;-62
2023/04/06 08:58:39;;;;;;;19.43;12.00;;;8.20;99.90;;;;;;5096635;28;20208;-61
2023/04/06 09:01:11;;;;;;;19.10;11.80;;;8.30;99.90;;;;;;5094648;28;20293;-61
2023/04/06 09:03:40;;;;;;;20.47;12.67;;;8.40;99.90;;;;;;5073137;28;20226;-62
2023/04/06 09:06:08;;;;;;;17.80;11.70;;;8.40;99.90;;;;;;5096558;28;20281;-61
2023/04/06 09:08:38;;;;;;;19.30;12.03;;;8.40;99.90;;;;;;5095698;28;20263;-61
2023/04/06 09:11:08;;;;;;;21.93;12.83;;;8.50;99.90;;;;;;5079811;28;20283;-60
2023/04/06 09:13:46;;;;;;;17.70;11.97;;;8.60;99.90;;;;;;5097441;28;20252;-60
2023/04/06 09:16:13;;;;;;;18.33;12.47;;;8.70;99.90;;;;;;5094709;28;20198;-60
2023/04/06 09:18:41;;;;;;;18.50;12.20;;;8.70;99.90;;;;;;5094512;28;20656;-60
2023/04/06 09:21:09;;;;;;;17.10;11.90;;;8.90;99.90;;;;;;5096280;28;20771;-60
2023/04/06 09:23:36;;;;;;;18.10;11.07;;;8.80;99.90;;;;;;5091969;28;20757;-60
2023/04/06 09:26:14;;;;;;;17.87;11.77;;;8.80;99.90;;;;;;5094111;28;20199;-62
2023/04/06 09:28:46;;;;;;;15.33;10.93;;;8.60;99.90;;;;;;5090936;28;20237;-63
2023/04/06 09:31:15;;;;;;;19.60;11.60;;;8.60;99.90;;;;;;5073322;28;20345;-62
2023/04/06 09:33:45;;;;;;;17.63;11.30;;;8.90;99.90;;;;;;5088320;28;20217;-61
2023/04/06 09:36:14;;;;;;;18.20;11.07;;;8.70;99.90;;;;;;5092677;28;20250;-61
2023/04/06 09:39:02;;;;;;;17.13;11.67;;;8.80;99.90;;;;;;5093350;28;20219;-61
2023/04/06 09:41:32;;;;;;;19.40;11.43;;;8.60;99.90;;;;;;5094327;28;20252;-63
2023/04/06 09:44:12;;;;;;;15.63;10.37;;;8.60;99.90;;;;;;5075970;28;20252;-61
2023/04/06 09:46:43;;;;;;;17.73;10.37;;;8.70;99.90;;;;;;5093929;28;20202;-64
2023/04/06 09:49:29;;;;;;;16.80;10.40;;;8.80;99.90;;;;;;5091885;28;20210;-61
2023/04/06 09:52:00;;;;;;;12.07;9.37;;;8.60;99.90;;;;;;5083490;28;20638;-64
2023/04/06 09:54:29;;;;;;;14.30;9.03;;;8.70;99.90;;;;;;5076426;28;20224;-61
2023/04/06 09:57:19;;;;;;;13.00;8.67;;;8.60;99.90;;;;;;5097672;28;20557;-61
2023/04/06 10:00:11;;;;;;;11.93;8.67;;;8.60;99.90;;;;;;5088983;28;20210;-61
2023/04/06 10:02:59;;;;;;;13.10;8.70;;;8.50;99.90;;;;;;5094543;28;20678;-64
2023/04/06 10:05:26;;;;;;;13.67;8.93;;;8.50;99.90;;;;;;5073750;28;20535;-62
2023/04/06 10:07:57;;;;;;;12.27;8.10;;;8.60;99.90;;;;;;5099549;28;20231;-60
2023/04/06 10:10:28;;;;;;;10.67;7.80;;;8.30;99.90;;;;;;5080474;28;20788;-60
2023/04/06 10:12:56;;;;;;;11.37;7.47;;;8.20;99.90;;;;;;5099768;28;20237;-60
2023/04/06 10:15:24;;;;;;;14.47;8.27;;;8.20;99.90;;;;;;5095768;28;20976;-61
2023/04/06 10:17:51;;;;;;;12.30;8.10;;;8.30;99.90;;;;;;5099481;28;20233;-61
2023/04/06 10:20:41;;;;;;;11.43;8.00;;;8.40;99.90;;;;;;5095867;28;20313;-63
2023/04/06 10:23:19;;;;;;;12.73;7.23;;;8.20;99.90;;;;;;5099221;28;20712;-61
2023/04/06 10:25:57;;;;;;;10.47;7.27;;;8.20;99.90;;;;;;5099493;28;20762;-61
2023/04/06 10:28:25;;;;;;;12.73;6.73;;;8.20;99.90;;;;;;5086826;28;20200;-61
2023/04/06 10:30:59;;;;;;;10.77;7.20;;;8.10;99.90;;;;;;5097808;28;20225;-64
2023/04/06 10:33:27;;;;;;;10.10;7.20;;;8.00;99.90;;;;;;5097219;27;20210;-61
2023/04/06 10:35:57;;;;;;;10.90;7.53;;;8.10;99.90;;;;;;5096912;28;20289;-63
2023/04/06 10:38:35;;;;;;;12.77;6.77;;;8.10;99.90;;;;;;5081379;28;20592;-65
2023/04/06 10:41:08;;;;;;;11.50;7.63;;;8.10;99.90;;;;;;5100670;28;20202;-62
2023/04/06 10:43:37;;;;;;;10.17;7.03;;;8.10;99.90;;;;;;5094125;28;20209;-63
2023/04/06 10:46:06;;;;;;;12.00;7.03;;;8.00;99.90;;;;;;5081259;28;20214;-61
2023/04/06 10:48:41;;;;;;;12.50;7.43;;;8.10;99.90;;;;;;5075789;28;20216;-61
2023/04/06 10:51:12;;;;;;;10.60;6.83;;;8.00;99.90;;;;;;5092893;28;20212;-61
2023/04/06 10:53:42;;;;;;;11.17;6.90;;;8.00;99.90;;;;;;5092797;28;20191;-61
2023/04/06 10:56:11;;;;;;;10.87;6.70;;;8.00;99.90;;;;;;5085009;28;20195;-60
2023/04/06 10:58:44;;;;;;;9.33;6.80;;;8.00;99.90;;;;;;5094992;28;21117;-61
2023/04/06 11:01:11;;;;;;;9.50;6.33;;;8.10;99.90;;;;;;5086886;27;20206;-61
2023/04/06 11:03:51;;;;;;;10.23;7.43;;;8.10;99.90;;;;;;5077722;28;21088;-63
2023/04/06 11:06:23;;;;;;;10.90;6.87;;;8.20;99.90;;;;;;5084508;28;20234;-60
2023/04/06 11:08:51;;;;;;;11.23;6.90;;;8.30;99.90;;;;;;5096308;28;20202;-60
2023/04/06 11:11:20;;;;;;;11.70;7.80;;;8.30;99.90;;;;;;5097174;28;20227;-60
2023/04/06 11:13:53;;;;;;;10.23;7.50;;;8.50;99.90;;;;;;5092762;27;20696;-60
2023/04/06 11:16:25;;;;;;;10.40;5.90;;;8.60;99.90;;;;;;5092761;28;20271;-60
2023/04/06 11:18:55;;;;;;;12.00;7.20;;;8.70;99.90;;;;;;5094161;28;20224;-60
2023/04/06 11:21:47;;;;;;;11.27;6.50;;;8.80;99.90;;;;;;5075115;28;20199;-60
2023/04/06 11:24:19;;;;;;;11.70;6.97;;;8.90;99.90;;;;;;5093499;27;20200;-60
2023/04/06 11:26:57;;;;;;;9.03;6.13;;;8.70;99.90;;;;;;5095460;27;20196;-60
2023/04/06 11:29:27;;;;;;;8.70;6.33;;;8.60;99.90;;;;;;5091191;28;20204;-60
2023/04/06 11:32:01;;;;;;;11.10;7.00;;;8.50;99.90;;;;;;5095300;28;20217;-60
2023/04/06 11:34:30;;;;;;;14.63;7.93;;;8.70;99.90;;;;;;5094579;28;20202;-60
2023/04/06 11:36:59;;;;;;;12.53;7.20;;;8.70;99.90;;;;;;5092209;28;20202;-61
2023/04/06 11:39:28;;;;;;;10.33;7.10;;;8.70;99.90;;;;;;5090697;28;20247;-60
2023/04/06 11:41:58;;;;;;;8.90;7.00;;;8.70;99.90;;;;;;5088288;27;20612;-60
2023/04/06 11:44:38;;;;;;;11.73;7.23;;;8.70;99.90;;;;;;5083277;28;20658;-60
2023/04/06 11:47:07;;;;;;;11.23;6.40;;;8.70;99.90;;;;;;5078586;28;20201;-60
2023/04/06 11:49:37;;;;;;;9.73;7.03;;;8.70;99.90;;;;;;5094315;28;20204;-61
2023/04/06 11:52:17;;;;;;;13.97;7.77;;;8.80;99.90;;;;;;5088917;28;20622;-61
2023/04/06 11:54:44;;;;;;;11.00;7.17;;;8.90;99.90;;;;;;5091013;27;20646;-61
2023/04/06 11:57:11;;;;;;;11.00;6.87;;;8.90;99.90;;;;;;5086404;28;20190;-60
2023/04/06 11:59:38;;;;;;;8.60;6.30;;;8.90;99.90;;;;;;5089300;28;20631;-60
2023/04/06 12:02:06;;;;;;;11.10;6.63;;;8.90;99.90;;;;;;5081257;28;20202;-62
2023/04/06 12:04:33;;;;;;;11.10;7.33;;;8.80;99.90;;;;;;5088877;28;20199;-63
2023/04/06 12:07:00;;;;;;;10.87;7.70;;;8.80;99.90;;;;;;5086363;28;20300;-60
2023/04/06 12:09:27;;;;;;;10.73;7.83;;;8.90;99.90;;;;;;5087865;28;20704;-60
2023/04/06 12:11:54;;;;;;;8.83;6.50;;;8.80;99.90;;;;;;5088274;28;20257;-61
2023/04/06 12:14:21;;;;;;;11.33;7.13;;;8.70;99.90;;;;;;5084906;28;20371;-61
2023/04/06 12:16:48;;;;;;;13.23;7.47;;;8.60;99.90;;;;;;5088584;28;20605;-60
2023/04/06 12:19:15;;;;;;;15.93;8.97;;;8.60;99.90;;;;;;5086681;28;22536;-63
2023/04/06 12:21:42;;;;;;;10.80;7.10;;;8.60;99.90;;;;;;5082289;28;20624;-61
2023/04/06 12:24:09;;;;;;;11.50;6.77;;;8.70;99.90;;;;;;5076324;28;20196;-61
2023/04/06 12:26:37;;;;;;;10.90;6.73;;;8.60;99.90;;;;;;5088648;28;20301;-61
2023/04/06 12:29:06;;;;;;;11.23;7.30;;;8.50;99.90;;;;;;5091640;28;20219;-61
2023/04/06 12:31:42;;;;;;;9.93;7.27;;;8.60;99.90;;;;;;5092018;28;20259;-62
2023/04/06 12:34:09;;;;;;;10.67;7.80;;;8.60;99.90;;;;;;5093585;28;20225;-61
2023/04/06 12:36:38;;;;;;;12.63;8.40;;;8.50;99.90;;;;;;5072091;28;20655;-61
2023/04/06 12:39:05;;;;;;;11.27;7.67;;;8.50;99.90;;;;;;5087041;28;20341;-61
2023/04/06 12:41:32;;;;;;;10.43;7.57;;;8.60;99.90;;;;;;5092668;28;20277;-61
2023/04/06 12:43:59;;;;;;;12.97;8.13;;;8.80;99.90;;;;;;5094297;28;20199;-61
2023/04/06 12:46:26;;;;;;;9.93;7.63;;;8.70;99.90;;;;;;5091168;28;20194;-61
2023/04/06 12:48:54;;;;;;;11.63;7.67;;;8.70;99.90;;;;;;5092194;28;20372;-61